Time;durP1;ratioP1;P1;durP2;ratioP2;P2;SDS_P1;SDS_P2;PMS_P1;PMS_P2;Temp;Humidity;BMP_temperature;BMP_pressure;BME280_temperature;BME280_humidity;BME280_pressure;Samples;Min_cycle;Max_cycle;Signal;HPM_P1;HPM_P2
2022/04/22 00:02:09;;;;;;;12.70;8.70;;;;;;;11.10;48.27;100397.71;117269;1186;21862;-46
2022/04/22 00:04:37;;;;;;;16.20;8.60;;;;;;;11.19;48.09;100400.05;117279;1189;23576;-46
2022/04/22 00:07:09;;;;;;;11.40;8.10;;;;;;;11.22;48.05;100393.31;117305;1185;22951;-57
2022/04/22 00:09:38;;;;;;;11.00;8.00;;;;;;;11.22;48.04;100391.04;117364;1186;23450;-56
2022/04/22 00:12:07;;;;;;;11.40;7.60;;;;;;;11.22;48.06;100395.60;117279;1186;23448;-47
2022/04/22 00:14:35;;;;;;;12.70;7.90;;;;;;;11.21;48.06;100391.39;117374;1186;22643;-57
2022/04/22 00:17:05;;;;;;;14.30;8.40;;;;;;;11.16;48.13;100391.30;117493;1186;23489;-57
2022/04/22 00:19:52;;;;;;;12.00;8.20;;;;;;;11.12;48.25;100389.41;117230;1189;22319;-46
2022/04/22 00:22:21;;;;;;;11.90;7.30;;;;;;;11.04;48.44;100387.60;117283;1186;23474;-47
2022/04/22 00:24:49;;;;;;;12.30;7.40;;;;;;;10.96;48.46;100387.36;117278;1186;24179;-46
2022/04/22 00:27:18;;;;;;;10.00;7.40;;;;;;;10.91;48.32;100388.31;117337;1186;23461;-46
2022/04/22 00:29:47;;;;;;;12.60;7.30;;;;;;;10.87;48.40;100386.96;117306;1185;24288;-46
2022/04/22 00:32:16;;;;;;;9.80;7.70;;;;;;;10.84;48.30;100387.17;117309;1186;23560;-46
2022/04/22 00:34:45;;;;;;;9.70;7.20;;;;;;;10.82;48.43;100392.09;117383;1185;24172;-46
2022/04/22 00:37:20;;;;;;;9.50;6.50;;;;;;;10.81;48.30;100394.40;117292;1187;23481;-46
2022/04/22 00:39:50;;;;;;;8.70;6.30;;;;;;;10.79;48.56;100390.91;117315;1185;22996;-56
2022/04/22 00:42:18;;;;;;;9.40;7.10;;;;;;;10.78;48.46;100393.22;117322;1186;23474;-46
2022/04/22 00:44:47;;;;;;;11.10;7.20;;;;;;;10.76;48.48;100394.64;117349;1187;21931;-55
2022/04/22 00:47:25;;;;;;;9.70;7.00;;;;;;;10.76;48.46;100394.65;117298;1186;23457;-46
2022/04/22 00:49:54;;;;;;;8.30;6.70;;;;;;;10.75;48.30;100395.55;117323;1185;21863;-56
2022/04/22 00:52:37;;;;;;;9.00;6.80;;;;;;;10.74;48.45;100392.39;117301;1186;24211;-57
2022/04/22 00:55:06;;;;;;;10.00;6.50;;;;;;;10.71;48.55;100383.83;117327;1185;22971;-46
2022/04/22 00:57:54;;;;;;;9.60;7.30;;;;;;;10.69;48.38;100386.30;117195;1185;21854;-56
2022/04/22 01:00:23;;;;;;;9.30;7.70;;;;;;;10.70;48.52;100385.77;117130;1186;23485;-57
2022/04/22 01:03:11;;;;;;;9.10;7.40;;;;;;;10.71;48.52;100385.23;117282;1186;21851;-56
2022/04/22 01:11:39;;;;;;;10.30;7.30;;;;;;;10.73;48.53;100388.20;117208;1186;22094;-46
2022/04/22 01:14:09;;;;;;;9.00;7.60;;;;;;;10.72;48.58;100390.84;117349;1186;23446;-56
2022/04/22 01:16:37;;;;;;;9.50;7.00;;;;;;;10.73;48.66;100385.39;117108;1186;21849;-56
2022/04/22 01:19:05;;;;;;;9.00;7.20;;;;;;;10.73;48.64;100385.73;117315;1186;23485;-56
2022/04/22 01:21:36;;;;;;;9.90;7.30;;;;;;;10.73;48.41;100385.39;117330;1186;25210;-46
2022/04/22 01:24:06;;;;;;;10.00;6.90;;;;;;;10.70;48.67;100385.23;117453;1186;23459;-46
2022/04/22 01:26:55;;;;;;;10.50;7.10;;;;;;;10.68;48.55;100386.14;117181;1186;21899;-56
2022/04/22 01:29:23;;;;;;;8.60;6.80;;;;;;;10.66;48.58;100386.86;117355;1186;21853;-46
2022/04/22 01:31:52;;;;;;;11.80;7.00;;;;;;;10.64;48.71;100383.39;117335;1184;21897;-57
2022/04/22 01:34:22;;;;;;;;;;;;;;;10.62;48.64;100382.70;117277;1186;22932;-46
2022/04/22 01:36:51;;;;;;;11.70;6.90;;;;;;;10.61;48.68;100387.44;117309;1186;23479;-46
2022/04/22 01:39:21;;;;;;;9.20;6.80;;;;;;;10.59;48.53;100388.19;117134;1186;23769;-57
2022/04/22 01:41:50;;;;;;;8.80;7.10;;;;;;;10.56;48.59;100389.10;117408;1186;23590;-56
2022/04/22 01:44:19;;;;;;;10.20;7.60;;;;;;;10.55;48.69;100395.09;117352;1186;23523;-57
2022/04/22 01:46:47;;;;;;;9.10;7.00;;;;;;;10.53;48.74;100393.16;117332;1185;24163;-57
2022/04/22 01:49:17;;;;;;;9.20;6.90;;;;;;;10.52;48.83;100389.48;117334;1186;24176;-46
2022/04/22 01:51:45;;;;;;;9.90;6.60;;;;;;;10.51;48.72;100385.48;117317;1185;23458;-56
2022/04/22 01:54:16;;;;;;;8.40;7.00;;;;;;;10.51;48.76;100385.66;117258;1186;24162;-56
2022/04/22 01:56:44;;;;;;;9.20;7.30;;;;;;;10.49;48.80;100384.98;117301;1185;24779;-48
2022/04/22 01:59:13;;;;;;;8.90;7.00;;;;;;;10.48;48.85;100382.52;117257;1186;23488;-46
2022/04/22 02:01:41;;;;;;;10.00;7.60;;;;;;;10.47;48.84;100376.23;117284;1185;24161;-57
2022/04/22 02:04:10;;;;;;;9.20;7.00;;;;;;;10.47;48.91;100377.27;117283;1186;23447;-46
2022/04/22 02:06:39;;;;;;;9.30;7.80;;;;;;;10.47;48.85;100381.48;117322;1185;24169;-56
2022/04/22 02:09:27;;;;;;;9.30;7.60;;;;;;;10.47;49.04;100386.58;117293;1188;21905;-46
2022/04/22 02:11:59;;;;;;;9.00;7.20;;;;;;;10.48;48.95;100385.69;117321;1186;23553;-46
2022/04/22 02:14:28;;;;;;;8.60;7.00;;;;;;;10.47;49.01;100384.29;117224;1185;22564;-46
2022/04/22 02:17:18;;;;;;;9.20;8.00;;;;;;;10.47;48.96;100385.52;117214;1186;21855;-47
2022/04/22 02:19:46;;;;;;;11.60;7.60;;;;;;;10.47;48.88;100387.98;117205;1186;21896;-57
2022/04/22 02:22:14;;;;;;;10.80;8.40;;;;;;;10.45;48.93;100383.27;117288;1186;23688;-56
2022/04/22 02:24:44;;;;;;;11.10;8.00;;;;;;;10.41;49.10;100385.23;117272;1186;23553;-46
2022/04/22 02:30:19;;;;;;;12.80;8.60;;;;;;;10.36;49.03;100389.30;117259;1186;21874;-57
2022/04/22 02:32:47;;;;;;;10.90;8.50;;;;;;;10.35;49.11;100388.79;117234;1183;21849;-46
2022/04/22 02:35:35;;;;;;;11.50;9.00;;;;;;;10.34;48.93;100390.20;117182;1186;21851;-47
2022/04/22 02:38:04;;;;;;;11.00;8.50;;;;;;;10.33;49.09;100391.61;117272;1186;23566;-47
2022/04/22 02:46:34;;;;;;;12.00;9.00;;;;;;;10.26;49.12;100400.10;117186;1186;23577;-47
2022/04/22 02:49:02;;;;;;;11.90;9.30;;;;;;;10.22;49.09;100402.58;117212;1185;21846;-47
2022/04/22 02:51:32;;;;;;;12.20;9.80;;;;;;;10.19;49.06;100403.33;117227;1186;23208;-57
2022/04/22 02:54:20;;;;;;;13.00;10.10;;;;;;;10.16;49.03;100407.75;117265;1185;23447;-57
2022/04/22 02:56:50;;;;;;;10.80;9.10;;;;;;;10.13;49.16;100406.91;117286;1186;22758;-57
2022/04/22 02:59:39;;;;;;;13.50;10.00;;;;;;;10.11;49.01;100410.08;117212;1186;21839;-47
2022/04/22 03:02:08;;;;;;;16.30;10.40;;;;;;;10.09;49.14;100408.69;117321;1186;23695;-47
2022/04/22 03:04:57;;;;;;;14.60;11.40;;;;;;;10.08;49.17;100407.13;117239;1185;21860;-57
2022/04/22 03:07:27;;;;;;;13.70;11.70;;;;;;;10.03;49.21;100402.08;117291;1186;21845;-47
2022/04/22 03:09:55;;;;;;;21.60;11.20;;;;;;;10.03;49.29;100405.60;117332;1186;23553;-57
2022/04/22 03:12:43;;;;;;;16.50;11.40;;;;;;;10.04;49.35;100410.84;117227;1186;23374;-57
2022/04/22 03:15:11;;;;;;;19.00;12.40;;;;;;;10.04;49.31;100411.55;117315;1186;23830;-47
2022/04/22 03:17:40;;;;;;;14.10;12.00;;;;;;;10.02;49.29;100413.84;117387;1186;23453;-47
2022/04/22 03:20:09;;;;;;;15.40;11.60;;;;;;;10.01;49.26;100417.89;117293;1186;23517;-56
2022/04/22 03:22:38;;;;;;;;;;;;;;;9.99;49.32;100418.42;117315;1186;23634;-57
2022/04/22 03:25:27;;;;;;;16.20;12.20;;;;;;;9.98;49.39;100418.44;117242;1189;21854;-46
2022/04/22 03:27:55;;;;;;;16.60;12.90;;;;;;;9.97;49.48;100420.55;117095;1187;21852;-57
2022/04/22 03:30:24;;;;;;;18.50;13.30;;;;;;;9.98;49.56;100423.52;117248;1186;24153;-59
2022/04/22 03:32:54;;;;;;;18.80;14.80;;;;;;;10.00;49.41;100424.91;117253;1186;21885;-47
2022/04/22 03:35:23;;;;;;;19.50;13.50;;;;;;;10.02;49.64;100431.21;117272;1186;23872;-47
2022/04/22 03:37:51;;;;;;;22.10;15.90;;;;;;;10.05;49.50;100435.20;117398;1186;23531;-47
2022/04/22 03:40:19;;;;;;;19.80;16.00;;;;;;;10.08;49.62;100441.84;117332;1188;23450;-46
2022/04/22 03:42:48;;;;;;;21.20;15.80;;;;;;;10.10;49.73;100443.75;117315;1186;24209;-47
2022/04/22 03:45:16;;;;;;;21.60;16.00;;;;;;;10.11;49.88;100447.77;117303;1185;23564;-46
2022/04/22 03:47:47;;;;;;;19.90;15.70;;;;;;;10.12;49.89;100442.85;117272;1186;23557;-46
2022/04/22 03:50:16;;;;;;;34.30;18.90;;;;;;;10.14;50.05;100442.50;117336;1186;23458;-47
2022/04/22 03:52:48;;;;;;;24.30;17.70;;;;;;;10.16;50.04;100434.94;117282;1186;24715;-50
2022/04/22 03:55:16;;;;;;;21.60;16.90;;;;;;;10.18;50.15;100436.66;117339;1186;24150;-58
2022/04/22 03:58:10;;;;;;;19.20;15.20;;;;;;;10.19;50.09;100441.73;117282;1189;22113;-59
2022/04/22 04:00:43;;;;;;;19.10;16.20;;;;;;;10.22;50.11;100444.16;117328;1186;21820;-59
2022/04/22 04:03:23;;;;;;;24.00;17.40;;;;;;;10.25;50.21;100444.12;117271;1187;24250;-59
2022/04/22 04:05:52;;;;;;;21.10;17.60;;;;;;;10.30;50.12;100450.76;117300;1186;24171;-47
2022/04/22 04:08:40;;;;;;;21.40;16.60;;;;;;;10.34;50.09;100448.44;117268;1186;21943;-48
2022/04/22 04:16:43;;;;;;;33.40;17.30;;;;;;;10.50;50.30;100454.43;117375;1185;21850;-59
2022/04/22 04:25:07;;;;;;;21.30;16.60;;;;;;;10.74;50.39;100449.77;117290;1185;23558;-57
2022/04/22 04:27:39;;;;;;;20.90;14.70;;;;;;;10.79;50.18;100453.40;117289;1186;21944;-57
2022/04/22 04:30:19;;;;;;;23.60;17.00;;;;;;;10.83;50.27;100454.05;117249;1186;24281;-47
2022/04/22 04:32:48;;;;;;;22.80;17.30;;;;;;;10.85;50.49;100456.83;117361;1186;23002;-47
2022/04/22 04:35:17;;;;;;;26.10;17.40;;;;;;;10.87;50.29;100455.07;117308;1185;21853;-46
2022/04/22 04:37:46;;;;;;;22.10;15.50;;;;;;;10.88;50.42;100459.09;117355;1185;24176;-47
2022/04/22 04:40:35;;;;;;;26.30;17.80;;;;;;;10.92;50.50;100463.07;117231;1186;21848;-57
2022/04/22 04:43:05;;;;;;;23.40;17.30;;;;;;;10.97;50.42;100465.84;117290;1186;23000;-57
2022/04/22 04:45:54;;;;;;;20.20;15.60;;;;;;;11.04;50.35;100463.10;117286;1189;23076;-47
2022/04/22 04:48:23;;;;;;;27.10;16.90;;;;;;;11.12;50.34;100462.30;117302;1185;24210;-57
2022/04/22 04:51:11;;;;;;;23.10;15.40;;;;;;;11.20;50.33;100463.42;117287;1189;21869;-57
2022/04/22 04:53:39;;;;;;;24.60;17.30;;;;;;;11.27;50.56;100467.54;117389;1185;23449;-57
2022/04/22 04:56:27;;;;;;;22.80;15.90;;;;;;;11.33;50.68;100460.08;117265;1187;21867;-47
2022/04/22 04:58:56;;;;;;;19.40;15.90;;;;;;;11.42;50.75;100466.98;117344;1185;23491;-57
2022/04/22 05:01:44;;;;;;;22.20;15.20;;;;;;;11.52;51.06;100465.61;117329;1185;21843;-47
2022/04/22 05:04:13;;;;;;;21.20;15.20;;;;;;;11.62;51.40;100468.27;117251;1186;23450;-47
2022/04/22 05:07:01;;;;;;;19.10;14.50;;;;;;;11.75;51.82;100465.27;117214;1186;21850;-47
2022/04/22 05:09:30;;;;;;;20.60;15.60;;;;;;;11.85;51.78;100472.67;117340;1186;24179;-56
2022/04/22 05:11:58;;;;;;;20.00;15.40;;;;;;;11.91;51.96;100479.77;117220;1186;23565;-56
2022/04/22 05:14:46;;;;;;;21.10;15.00;;;;;;;11.96;51.99;100478.63;117231;1188;21985;-56
2022/04/22 05:17:24;;;;;;;17.60;14.50;;;;;;;12.00;51.48;100482.29;117231;1186;23579;-56
2022/04/22 05:19:54;;;;;;;;;;;;;;;12.07;51.35;100487.30;117258;1185;23472;-57
2022/04/22 05:22:43;;;;;;;21.20;13.40;;;;;;;12.14;51.23;100491.74;118454;1185;21853;-48
2022/04/22 05:25:12;;;;;;;15.90;13.00;;;;;;;12.23;51.38;100498.64;117301;1186;23494;-57
2022/04/22 05:28:00;;;;;;;21.90;13.20;;;;;;;12.27;51.39;100496.63;117238;1186;21853;-48
2022/04/22 05:33:15;;;;;;;17.60;12.60;;;;;;;12.43;51.70;100513.05;117288;1186;23652;-57
2022/04/22 05:35:58;;;;;;;20.90;13.10;;;;;;;12.50;51.71;100508.54;117253;1185;23576;-57
2022/04/22 05:38:26;;;;;;;19.20;12.60;;;;;;;12.57;51.56;100510.52;117283;1181;23557;-57
2022/04/22 05:40:56;;;;;;;17.60;12.30;;;;;;;12.65;52.00;100513.71;117313;1186;23833;-48
2022/04/22 05:43:24;;;;;;;17.00;11.50;;;;;;;12.74;51.85;100515.67;117274;1186;23744;-48
2022/04/22 05:45:53;;;;;;;12.60;10.90;;;;;;;12.84;51.86;100511.24;117353;1186;23566;-57
2022/04/22 05:48:21;;;;;;;15.70;11.30;;;;;;;12.98;51.95;100510.63;117204;1185;23556;-57
2022/04/22 05:50:50;;;;;;;15.20;10.70;;;;;;;13.14;51.88;100513.10;117227;1186;21882;-49
2022/04/22 05:53:19;;;;;;;15.70;11.10;;;;;;;13.32;52.07;100518.90;117275;1186;21871;-57
2022/04/22 05:56:06;;;;;;;15.20;10.30;;;;;;;13.41;51.88;100521.73;117190;1185;23441;-56
2022/04/22 05:58:34;;;;;;;12.00;9.40;;;;;;;13.46;51.85;100521.27;117365;1185;22209;-48
2022/04/22 06:01:22;;;;;;;15.40;9.60;;;;;;;13.47;51.97;100514.91;117232;1186;23555;-47
2022/04/22 06:03:50;;;;;;;14.70;9.70;;;;;;;13.51;51.96;100516.05;117226;1182;23036;-55
2022/04/22 06:06:32;;;;;;;14.90;10.00;;;;;;;13.65;52.11;100515.93;117244;1187;23500;-48
2022/04/22 06:11:55;;;;;;;14.90;10.60;;;;;;;13.92;52.57;100520.95;117286;1186;24310;-55
2022/04/22 06:14:23;;;;;;;14.30;9.20;;;;;;;13.96;52.55;100522.59;117313;1185;22948;-55
2022/04/22 06:16:51;;;;;;;15.10;10.10;;;;;;;14.06;52.37;100525.19;117332;1185;23741;-48
2022/04/22 06:19:40;;;;;;;14.20;9.00;;;;;;;14.25;52.58;100527.73;117234;1186;21866;-55
2022/04/22 06:22:10;;;;;;;11.40;8.40;;;;;;;14.44;52.63;100523.18;117278;1186;23691;-55
2022/04/22 06:24:38;;;;;;;12.30;9.00;;;;;;;14.51;52.41;100522.47;117343;1186;23444;-48
2022/04/22 06:27:28;;;;;;;13.00;8.40;;;;;;;14.51;52.15;100525.13;117220;1185;21843;-47
2022/04/22 06:29:57;;;;;;;;;;;;;;;14.53;51.96;100520.84;117246;1186;21849;-55
2022/04/22 06:32:47;;;;;;;16.90;8.80;;;;;;;14.62;52.34;100526.25;117292;1180;22909;-55
2022/04/22 06:35:18;;;;;;;13.80;9.20;;;;;;;14.61;51.93;100527.32;117383;1186;21854;-48
2022/04/22 06:37:48;;;;;;;11.80;8.10;;;;;;;14.59;52.24;100528.27;117317;1186;21870;-49
2022/04/22 06:45:59;;;;;;;12.50;8.60;;;;;;;15.04;52.17;100516.13;117211;1185;23486;-48
2022/04/22 06:48:30;;;;;;;13.60;8.70;;;;;;;15.22;52.11;100518.77;117265;1187;23464;-49
2022/04/22 06:51:17;;;;;;;11.70;7.90;;;;;;;15.28;52.08;100521.23;117285;1186;23461;-48
2022/04/22 06:53:47;;;;;;;13.40;8.60;;;;;;;15.23;51.69;100525.13;117244;1186;23006;-49
2022/04/22 06:56:15;;;;;;;11.90;8.90;;;;;;;15.15;51.52;100528.70;117232;1186;22994;-56
2022/04/22 06:58:44;;;;;;;12.60;8.50;;;;;;;15.14;51.60;100524.33;117113;1186;21840;-55
2022/04/22 07:01:14;;;;;;;14.80;8.60;;;;;;;15.22;51.53;100527.79;117247;1186;23488;-48
2022/04/22 07:04:03;;;;;;;13.60;9.60;;;;;;;15.24;51.66;100537.63;117119;1185;24172;-49
2022/04/22 07:06:33;;;;;;;11.00;8.40;;;;;;;15.26;51.59;100540.92;117279;1185;21985;-48
2022/04/22 07:09:01;;;;;;;14.70;8.80;;;;;;;15.28;51.47;100542.45;117290;1186;21895;-56
2022/04/22 07:11:30;;;;;;;11.30;8.30;;;;;;;15.33;51.60;100544.61;117340;1188;21876;-48
2022/04/22 07:14:18;;;;;;;12.90;8.40;;;;;;;15.32;51.55;100540.76;117235;1186;23059;-57
2022/04/22 07:16:48;;;;;;;12.10;8.60;;;;;;;15.35;51.59;100539.45;117171;1186;21972;-47
2022/04/22 07:19:17;;;;;;;12.00;9.40;;;;;;;15.40;51.58;100539.65;117234;1185;24309;-48
2022/04/22 07:22:05;;;;;;;11.10;8.40;;;;;;;15.40;51.54;100544.44;117242;1186;22974;-48
2022/04/22 07:24:34;;;;;;;14.40;9.50;;;;;;;15.38;51.39;100545.89;117269;1185;23660;-48
2022/04/22 07:27:05;;;;;;;13.90;8.60;;;;;;;15.35;51.36;100549.69;117211;1186;23557;-56
2022/04/22 07:29:47;;;;;;;14.50;8.90;;;;;;;15.33;51.37;100550.11;117041;1185;23672;-56
2022/04/22 07:32:17;;;;;;;13.90;8.90;;;;;;;15.30;51.29;100552.84;117232;1185;23702;-56
2022/04/22 07:34:45;;;;;;;13.50;8.40;;;;;;;15.27;51.36;100551.86;117325;1181;21972;-57
2022/04/22 07:37:13;;;;;;;13.60;8.50;;;;;;;15.24;51.34;100555.30;117314;1185;21866;-57
2022/04/22 07:39:43;;;;;;;12.30;8.30;;;;;;;15.23;51.46;100558.35;117212;1186;21866;-56
2022/04/22 07:42:20;;;;;;;9.70;7.80;;;;;;;15.22;51.58;100562.27;117284;1185;21857;-48
2022/04/22 07:47:57;;;;;;;10.50;8.50;;;;;;;15.31;51.42;100563.77;117229;1185;24240;-48
2022/04/22 07:50:27;;;;;;;9.50;7.90;;;;;;;15.35;51.39;100559.24;117287;1185;21852;-56
2022/04/22 07:52:56;;;;;;;13.60;8.00;;;;;;;15.38;51.27;100552.61;117329;1185;23715;-57
2022/04/22 07:55:24;;;;;;;13.90;8.90;;;;;;;15.43;51.43;100551.77;117286;1187;22898;-48
2022/04/22 07:58:15;;;;;;;10.50;7.70;;;;;;;15.42;51.29;100553.20;117253;1185;21855;-48
2022/04/22 08:00:45;;;;;;;12.20;8.20;;;;;;;15.38;51.32;100547.13;117274;1185;21872;-49
2022/04/22 08:03:34;;;;;;;10.60;8.40;;;;;;;15.29;51.28;100545.79;117238;1185;21841;-56
2022/04/22 08:06:04;;;;;;;12.40;8.60;;;;;;;15.32;51.48;100544.14;117241;1184;23574;-48
2022/04/22 08:08:33;;;;;;;12.20;8.30;;;;;;;15.37;51.48;100537.43;117293;1185;24195;-56
2022/04/22 08:11:21;;;;;;;12.30;8.20;;;;;;;15.45;51.54;100538.97;117233;1184;21864;-48
2022/04/22 08:13:51;;;;;;;11.60;9.50;;;;;;;15.46;51.55;100540.00;117330;1185;22973;-48
2022/04/22 08:16:19;;;;;;;14.30;9.40;;;;;;;15.40;51.39;100539.30;117312;1186;21855;-48
2022/04/22 08:19:07;;;;;;;10.90;8.30;;;;;;;15.40;51.59;100538.23;117268;1184;21896;-56
2022/04/22 08:21:37;;;;;;;10.30;8.60;;;;;;;15.40;51.31;100536.83;117308;1186;21942;-56
2022/04/22 08:24:10;;;;;;;10.00;8.70;;;;;;;15.46;51.49;100530.95;117313;1185;21851;-57
2022/04/22 08:26:58;;;;;;;9.20;8.00;;;;;;;15.60;51.41;100528.26;117263;1185;21871;-48
2022/04/22 08:29:28;;;;;;;12.60;8.60;;;;;;;15.70;51.44;100520.34;117285;1185;23614;-57
2022/04/22 08:31:56;;;;;;;12.00;8.80;;;;;;;15.81;51.38;100527.79;117318;1186;24186;-57
2022/04/22 08:34:26;;;;;;;12.50;8.50;;;;;;;15.86;51.26;100525.52;117304;1185;22945;-48
2022/04/22 08:36:54;;;;;;;13.70;10.00;;;;;;;15.95;51.35;100521.52;117367;1185;21863;-57
2022/04/22 08:39:33;;;;;;;15.50;9.80;;;;;;;16.15;51.51;100524.25;117153;1186;23566;-57
2022/04/22 08:42:03;;;;;;;14.70;9.40;;;;;;;16.26;51.21;100516.63;117352;1185;23569;-49
2022/04/22 08:45:11;;;;;;;11.50;8.40;;;;;;;16.37;51.18;100512.18;117234;1180;21840;-48
2022/04/22 08:50:50;;;;;;;12.30;8.30;;;;;;;16.49;51.23;100518.50;117226;1186;21845;-48
2022/04/22 08:53:21;;;;;;;12.60;7.90;;;;;;;16.62;51.18;100520.34;117170;1186;21863;-48
2022/04/22 08:56:07;;;;;;;11.70;8.00;;;;;;;16.79;51.12;100519.40;117079;1187;21817;-56
2022/04/22 08:58:36;;;;;;;10.30;7.40;;;;;;;16.89;51.03;100520.10;116975;1189;21862;-56
2022/04/22 09:01:24;;;;;;;8.90;7.10;;;;;;;16.94;50.82;100518.70;117239;1186;23450;-49
2022/04/22 09:03:53;;;;;;;12.00;8.20;;;;;;;16.98;50.84;100514.86;117243;1189;21839;-57
2022/04/22 09:06:50;;;;;;;9.70;7.30;;;;;;;17.02;50.70;100514.89;117239;1186;21978;-56
2022/04/22 09:09:19;;;;;;;9.70;8.40;;;;;;;17.04;50.73;100508.61;117313;1186;22226;-56
2022/04/22 09:11:47;;;;;;;9.60;7.20;;;;;;;17.10;50.77;100506.98;117158;1182;21857;-49
2022/04/22 09:14:35;;;;;;;13.30;7.60;;;;;;;17.11;50.60;100510.11;117227;1186;21865;-49
2022/04/22 09:17:04;;;;;;;13.30;8.90;;;;;;;17.09;50.47;100511.23;117312;1185;21853;-56
2022/04/22 09:19:35;;;;;;;9.50;7.70;;;;;;;17.12;50.63;100507.79;117113;1185;21865;-55
2022/04/22 09:22:26;;;;;;;11.50;8.40;;;;;;;17.17;50.41;100510.25;117267;1186;21842;-48
2022/04/22 09:24:59;;;;;;;10.40;8.40;;;;;;;17.06;50.10;100507.30;117252;1186;21861;-56
2022/04/22 09:27:32;;;;;;;11.30;7.60;;;;;;;16.95;50.22;100512.65;117119;1186;22935;-49
2022/04/22 09:30:20;;;;;;;11.30;7.10;;;;;;;16.90;50.24;100520.77;117096;1187;21858;-49
2022/04/22 09:32:48;;;;;;;10.90;7.40;;;;;;;16.83;50.20;100526.17;117150;1186;24168;-48
2022/04/22 09:35:17;;;;;;;15.10;7.80;;;;;;;16.75;50.15;100525.58;117456;1181;23453;-56
2022/04/22 09:43:45;;;;;;;9.80;7.10;;;;;;;16.80;50.24;100528.21;117174;1186;23064;-48
2022/04/22 09:46:32;;;;;;;14.00;8.00;;;;;;;16.84;50.25;100528.61;117303;1186;21843;-49
2022/04/22 09:49:00;;;;;;;10.60;7.60;;;;;;;16.95;50.36;100533.73;117246;1186;23544;-56
2022/04/22 09:51:30;;;;;;;10.20;7.40;;;;;;;16.93;50.16;100534.66;117258;1186;24180;-56
2022/04/22 09:54:05;;;;;;;11.70;7.20;;;;;;;16.83;49.98;100537.14;117297;1186;21852;-49
2022/04/22 09:56:57;;;;;;;13.20;8.20;;;;;;;16.83;50.23;100546.39;117259;1189;23428;-56
2022/04/22 09:59:27;;;;;;;11.60;7.20;;;;;;;16.77;50.18;100536.11;117239;1186;21933;-56
2022/04/22 10:02:21;;;;;;;9.40;7.00;;;;;;;16.77;50.14;100540.39;117158;1186;21840;-47
2022/04/22 10:04:54;;;;;;;8.90;6.70;;;;;;;16.79;50.10;100545.61;117157;1186;22938;-56
2022/04/22 10:07:27;;;;;;;9.10;6.60;;;;;;;16.89;50.27;100546.69;117165;1187;22643;-48
2022/04/22 10:10:15;;;;;;;10.60;7.20;;;;;;;16.97;50.17;100544.48;117207;1186;22953;-48
2022/04/22 10:13:04;;;;;;;12.10;7.00;;;;;;;16.99;50.21;100550.98;117139;1186;21851;-48
2022/04/22 10:15:37;;;;;;;8.90;7.00;;;;;;;17.01;49.95;100555.70;117301;1186;21840;-55
2022/04/22 10:18:26;;;;;;;11.50;7.00;;;;;;;17.00;50.00;100559.09;117224;1186;23503;-48
2022/04/22 10:20:55;;;;;;;9.60;5.70;;;;;;;16.96;49.87;100560.11;117321;1186;23569;-48
2022/04/22 10:23:24;;;;;;;14.70;7.40;;;;;;;16.94;49.94;100559.45;117015;1187;23558;-48
2022/04/22 10:25:57;;;;;;;14.00;6.50;;;;;;;16.93;49.90;100562.33;117364;1185;22619;-53
2022/04/22 10:28:46;;;;;;;13.30;6.50;;;;;;;16.93;49.95;100563.90;117234;1183;21845;-48
2022/04/22 10:31:14;;;;;;;10.40;7.00;;;;;;;16.99;50.10;100566.38;117045;1186;23045;-56
2022/04/22 10:34:06;;;;;;;10.80;6.50;;;;;;;17.09;50.19;100575.95;117134;1189;21853;-56
2022/04/22 10:36:35;;;;;;;10.30;6.70;;;;;;;17.15;50.11;100577.90;117305;1186;21978;-49
2022/04/22 10:39:05;;;;;;;12.50;8.20;;;;;;;17.13;49.95;100569.79;117294;1180;21974;-56
2022/04/22 10:41:45;;;;;;;9.70;6.10;;;;;;;17.14;50.03;100565.52;117330;1186;23556;-55
2022/04/22 10:47:14;;;;;;;11.40;6.70;;;;;;;17.06;49.80;100568.79;117162;1186;23567;-48
2022/04/22 10:49:44;;;;;;;12.20;6.60;;;;;;;17.11;49.96;100569.35;117102;1188;23892;-55
2022/04/22 10:52:20;;;;;;;10.40;5.80;;;;;;;17.12;49.88;100564.88;118128;1185;23546;-56
2022/04/22 10:54:52;;;;;;;11.00;6.70;;;;;;;17.11;49.90;100560.64;117247;1186;21851;-56
2022/04/22 10:57:42;;;;;;;13.50;6.50;;;;;;;17.15;49.95;100557.33;117392;1186;21958;-55
2022/04/22 11:00:14;;;;;;;13.40;6.60;;;;;;;17.18;49.89;100553.68;117301;1187;23716;-55
2022/04/22 11:03:03;;;;;;;10.30;5.80;;;;;;;17.21;49.90;100555.15;117246;1186;21869;-48
2022/04/22 11:05:32;;;;;;;9.30;5.80;;;;;;;17.27;49.97;100549.22;117248;1189;21944;-56
2022/04/22 11:08:38;;;;;;;9.60;6.10;;;;;;;17.42;50.16;100547.48;117285;1186;21843;-55
2022/04/22 11:11:15;;;;;;;11.30;5.80;;;;;;;17.50;50.01;100543.20;117399;1185;23468;-55
2022/04/22 11:13:49;;;;;;;9.20;5.70;;;;;;;17.59;50.11;100543.40;117244;1185;24777;-49
2022/04/22 11:16:28;;;;;;;8.20;6.00;;;;;;;17.64;49.87;100539.16;117334;1185;24366;-49
2022/04/22 11:19:18;;;;;;;9.80;5.60;;;;;;;17.70;49.93;100542.81;117336;1185;24303;-49
2022/04/22 11:22:07;;;;;;;10.40;5.50;;;;;;;17.71;49.74;100536.22;117271;1185;21926;-57
2022/04/22 11:24:36;;;;;;;10.60;5.60;;;;;;;17.79;49.93;100538.73;117296;1186;22947;-48
2022/04/22 11:27:11;;;;;;;8.40;4.90;;;;;;;17.86;49.76;100539.52;117330;1185;23013;-56
2022/04/22 11:29:59;;;;;;;9.40;5.30;;;;;;;17.84;49.67;100539.42;117239;1189;21909;-57
2022/04/22 11:32:28;;;;;;;10.20;5.30;;;;;;;17.84;49.74;100542.80;117285;1186;24175;-56
2022/04/22 11:35:01;;;;;;;8.10;4.80;;;;;;;17.82;49.57;100540.74;117255;1186;21953;-56
2022/04/22 11:37:30;;;;;;;8.60;5.10;;;;;;;17.69;49.45;100547.46;117312;1186;22009;-55
2022/04/22 11:39:58;;;;;;;9.90;4.80;;;;;;;17.54;49.38;100547.15;117334;1185;23742;-48
2022/04/22 11:42:45;;;;;;;12.40;4.50;;;;;;;17.36;49.26;100543.95;117342;1185;23452;-48
2022/04/22 11:45:16;;;;;;;9.60;5.50;;;;;;;17.20;49.30;100547.53;117316;1186;23553;-56
2022/04/22 11:48:11;;;;;;;7.80;4.90;;;;;;;17.06;49.21;100540.98;117278;1186;23556;-48
2022/04/22 11:50:43;;;;;;;7.10;4.80;;;;;;;16.97;49.23;100542.90;117280;1185;22182;-48
2022/04/22 11:53:34;;;;;;;8.70;5.10;;;;;;;16.89;49.31;100539.42;117290;1186;21858;-48
2022/04/22 11:56:04;;;;;;;11.50;5.70;;;;;;;16.91;49.54;100542.72;117309;1186;24210;-55
2022/04/22 11:58:33;;;;;;;10.10;5.70;;;;;;;16.91;49.42;100545.73;117255;1186;21869;-48
2022/04/22 12:08:00;;;;;;;9.10;4.90;;;;;;;16.55;49.51;100535.83;117001;1188;23557;-57
2022/04/22 12:10:00;;;;;;;11.50;5.50;;;;;;;16.50;49.53;100531.03;117301;1186;23566;-49
2022/04/22 12:12:32;;;;;;;8.60;4.90;;;;;;;16.44;49.43;100522.91;117364;1186;23739;-49
2022/04/22 12:15:02;;;;;;;12.90;5.20;;;;;;;16.41;49.49;100521.77;117266;1186;22913;-48
2022/04/22 12:17:33;;;;;;;10.40;6.00;;;;;;;16.35;49.45;100521.09;117241;1186;22090;-49
2022/04/22 12:20:02;;;;;;;10.80;6.00;;;;;;;16.28;49.51;100515.16;117344;1186;23694;-56
2022/04/22 12:22:32;;;;;;;9.80;5.50;;;;;;;16.29;49.63;100514.25;117292;1186;23542;-48
2022/04/22 12:25:14;;;;;;;9.10;5.70;;;;;;;16.26;49.55;100507.95;117138;1187;22926;-49
2022/04/22 12:27:44;;;;;;;11.70;5.10;;;;;;;16.22;49.42;100508.79;117282;1185;21855;-49
2022/04/22 12:30:14;;;;;;;10.30;6.00;;;;;;;16.18;49.49;100512.11;117296;1185;23626;-56
2022/04/22 12:32:52;;;;;;;7.90;5.20;;;;;;;16.11;49.42;100513.60;117283;1180;22926;-56
2022/04/22 12:35:21;;;;;;;12.70;5.60;;;;;;;16.10;49.47;100507.95;117286;1186;24223;-56
2022/04/22 12:37:52;;;;;;;;;;;;;;;16.12;49.64;100512.32;117257;1186;21843;-48
2022/04/22 12:40:22;;;;;;;9.90;5.80;;;;;;;16.17;49.70;100515.68;117308;1186;21876;-48
2022/04/22 12:42:50;;;;;;;11.90;6.00;;;;;;;16.16;49.62;100513.40;117323;1180;21850;-56